VGEG/CGP METAR and TAF weather

Enter ICAO airport designator
Station Type Date Time Source
VGEG METAR 2022/05/24 12:00 UTC NOAA

VGEG 241200Z 23008KT 5000 SCT016 BKN100 30/27 Q1002 NOSIG


Station Type Date Time Source
VGEG Decoded METAR 2022/05/24 12:00 UTC NOAA

Chittagong Patenga , Bangladesh (VGEG) 22-16N 091-49E 6M
May 24, 2022 - 08:00 AM EDT / 2022.05.24 1200 UTC
Wind: from the SW (230 degrees) at 9 MPH (8 KT):0
Visibility: 3 mile(s):0
Sky conditions: mostly cloudy
Temperature: 86 F (30 C)
Heat index: 101.8 F (38.8 C):1
Dew Point: 80 F (27 C)
Relative Humidity: 84%
Pressure (altimeter): 29.59 in. Hg (1002 hPa)
ob: VGEG 241200Z 23008KT 5000 SCT016 BKN100 30/27 Q1002 NOSIG
cycle: 12

Station Type Date Time Source
VGEG TAF 2022/05/24 12:36 UTC NOAA

TAF TAF VGEG 241100Z 2412/2518 24006KT 5000 HZ SCT016 SCT120
BECMG 2416/2418 12004KT 4000 HZ SCT015 BKN110
TEMPO 2421/2504 27020KT 1500 RA/TSRA SCT007 FEW028CB BKN090

Example: see airport list